Time;durP1;ratioP1;P1;durP2;ratioP2;P2;SDS_P1;SDS_P2;PMS_P1;PMS_P2;Temp;Humidity;BMP_temperature;BMP_pressure;BME280_temperature;BME280_humidity;BME280_pressure;Samples;Min_cycle;Max_cycle;Signal;HPM_P1;HPM_P2
2022/09/18 00:04:17;;;;;;;5.2;8.9;;;;;;;10.9;86.7;97620;;;;
2022/09/18 00:14:17;;;;;;;5.2;8.9;;;;;;;10.8;87;97620;;;;
2022/09/18 00:25:17;;;;;;;3.5;6.1;;;;;;;10.7;87.4;97620;;;;
2022/09/18 00:36:18;;;;;;;3.5;6.1;;;;;;;10.7;87.5;97620;;;;
2022/09/18 00:47:17;;;;;;;4;7.6;;;;;;;10.7;87.8;97620;;;;
2022/09/18 00:58:17;;;;;;;4;7.6;;;;;;;10.5;88.2;97620;;;;
2022/09/18 01:08:17;;;;;;;4;7.6;;;;;;;10.6;87.8;97620;;;;
2022/09/18 01:18:17;;;;;;;4.3;9.9;;;;;;;10.5;88.1;97620;;;;
2022/09/18 01:28:18;;;;;;;4.3;9.9;;;;;;;10.4;88.3;97620;;;;
2022/09/18 01:39:18;;;;;;;4.3;9.9;;;;;;;10.5;88.5;97620;;;;
2022/09/18 01:50:17;;;;;;;;;;;;;;;;;;;;;
2022/09/18 02:00:18;;;;;;;6.2;12.1;;;;;;;10.3;89;97640;;;;
2022/09/18 02:11:18;;;;;;;6.2;12.1;;;;;;;10.2;88.8;97640;;;;
2022/09/18 02:22:18;;;;;;;7.7;11.9;;;;;;;10.3;88.7;97640;;;;
2022/09/18 02:32:18;;;;;;;7.7;11.9;;;;;;;10.1;88.9;97650;;;;
2022/09/18 02:43:17;;;;;;;7.7;11.9;;;;;;;10.1;89;97650;;;;
2022/09/18 02:53:18;;;;;;;6.6;9.4;;;;;;;10.1;89.4;97650;;;;
2022/09/18 03:04:18;;;;;;;6.6;9.4;;;;;;;10.1;89.5;97660;;;;
2022/09/18 03:15:18;;;;;;;6.6;9.4;;;;;;;10.1;89.3;97660;;;;
2022/09/18 03:25:18;;;;;;;6.3;10;;;;;;;10;89.3;97660;;;;
2022/09/18 03:36:18;;;;;;;6.3;10;;;;;;;9.9;88.8;97660;;;;
2022/09/18 03:47:18;;;;;;;5.9;9.4;;;;;;;9.9;88.5;97670;;;;
2022/09/18 03:57:18;;;;;;;5.9;9.4;;;;;;;9.7;88.3;97680;;;;
2022/09/18 04:08:17;;;;;;;5.9;9.4;;;;;;;9.6;88.5;97680;;;;
2022/09/18 04:18:18;;;;;;;5.7;10.1;;;;;;;9.5;88.2;97680;;;;
2022/09/18 04:29:18;;;;;;;5.7;10.1;;;;;;;9.3;88.2;97690;;;;
2022/09/18 04:39:18;;;;;;;5.7;10.1;;;;;;;9.3;87.6;97690;;;;
2022/09/18 04:49:18;;;;;;;5.7;9.7;;;;;;;9.1;86.8;97700;;;;
2022/09/18 05:00:18;;;;;;;5.7;9.7;;;;;;;9.1;86.9;97700;;;;
2022/09/18 05:10:18;;;;;;;5.7;9.7;;;;;;;9.3;87.2;97710;;;;
2022/09/18 05:21:18;;;;;;;3.9;6.6;;;;;;;9.4;87.2;97720;;;;
2022/09/18 05:31:18;;;;;;;3.9;6.6;;;;;;;9.6;87.1;97710;;;;
2022/09/18 05:42:18;;;;;;;3.9;6.6;;;;;;;9.6;86;97720;;;;
2022/09/18 05:53:18;;;;;;;6.8;12.4;;;;;;;9.7;85.5;97710;;;;
2022/09/18 06:04:18;;;;;;;6.8;12.4;;;;;;;9.9;84.4;97720;;;;
2022/09/18 06:15:18;;;;;;;6.8;12.4;;;;;;;10.2;83.1;97720;;;;
2022/09/18 06:26:18;;;;;;;5.4;9.3;;;;;;;10.3;81.8;97730;;;;
2022/09/18 06:37:19;;;;;;;5.4;9.3;;;;;;;10.3;80.9;97730;;;;
2022/09/18 06:48:18;;;;;;;3.6;6.4;;;;;;;10.6;80.3;97740;;;;
2022/09/18 06:59:18;;;;;;;3.6;6.4;;;;;;;11.1;80;97740;;;;
2022/09/18 07:10:18;;;;;;;3.6;6.4;;;;;;;11.2;77.9;97740;;;;
2022/09/18 07:20:18;;;;;;;2.9;5.4;;;;;;;11.3;77.3;97740;;;;
2022/09/18 07:30:18;;;;;;;2.9;5.4;;;;;;;11.6;76.6;97750;;;;
2022/09/18 07:41:18;;;;;;;2.9;5.4;;;;;;;11.7;76.5;97740;;;;
2022/09/18 07:52:18;;;;;;;2.4;5.7;;;;;;;11.7;74.8;97750;;;;
2022/09/18 08:02:18;;;;;;;2.4;5.7;;;;;;;12;73.8;97760;;;;
2022/09/18 08:13:18;;;;;;;2.4;5.7;;;;;;;12.2;74.7;97750;;;;
2022/09/18 08:24:18;;;;;;;2.2;3.8;;;;;;;11.9;74.5;97740;;;;
2022/09/18 08:35:18;;;;;;;2.2;3.8;;;;;;;11.8;74.5;97750;;;;
2022/09/18 08:45:19;;;;;;;2.2;3.8;;;;;;;12;72.6;97750;;;;
2022/09/18 08:56:18;;;;;;;2.8;8.6;;;;;;;12.7;72.5;97740;;;;
2022/09/18 09:06:18;;;;;;;2.8;8.6;;;;;;;13.3;69.2;97740;;;;
2022/09/18 09:17:18;;;;;;;2.5;4.6;;;;;;;13.3;67.6;97740;;;;
2022/09/18 09:28:18;;;;;;;2.5;4.6;;;;;;;12.4;71.6;97730;;;;
2022/09/18 09:38:18;;;;;;;2.5;4.6;;;;;;;12.7;70.9;97730;;;;
2022/09/18 09:48:18;;;;;;;3.2;6;;;;;;;13.3;68.3;97720;;;;
2022/09/18 09:59:18;;;;;;;3.2;6;;;;;;;12.8;69.3;97740;;;;
2022/09/18 10:10:18;;;;;;;3.2;6;;;;;;;13.1;68.9;97740;;;;
2022/09/18 10:20:18;;;;;;;3.1;5.4;;;;;;;13.4;68.3;97730;;;;
2022/09/18 10:31:18;;;;;;;3.1;5.4;;;;;;;13.1;68.7;97750;;;;
2022/09/18 10:42:18;;;;;;;3.1;5.4;;;;;;;12.4;75.7;97760;;;;
2022/09/18 10:53:18;;;;;;;2.1;3.7;;;;;;;12.6;76.1;97770;;;;
2022/09/18 11:04:18;;;;;;;2.1;3.7;;;;;;;13.2;76.6;97760;;;;
2022/09/18 11:14:18;;;;;;;2.1;3.7;;;;;;;12.7;73.7;97780;;;;
2022/09/18 11:24:18;;;;;;;2.2;3.8;;;;;;;12.2;76.3;97800;;;;
2022/09/18 11:35:18;;;;;;;2.2;3.8;;;;;;;12.6;73.9;97790;;;;
2022/09/18 11:45:18;;;;;;;2.2;3.8;;;;;;;12.9;72.5;97800;;;;
2022/09/18 11:55:18;;;;;;;1.4;2.8;;;;;;;13.2;71.3;97800;;;;
2022/09/18 12:06:18;;;;;;;1.4;2.8;;;;;;;12.4;73.4;97810;;;;
2022/09/18 12:17:18;;;;;;;1.3;3;;;;;;;12.6;73.9;97810;;;;
2022/09/18 12:28:18;;;;;;;1.3;3;;;;;;;12.3;76.1;97820;;;;
2022/09/18 12:38:18;;;;;;;1.3;3;;;;;;;12.2;78.9;97820;;;;
2022/09/18 12:48:18;;;;;;;1.9;3.8;;;;;;;11.7;81;97840;;;;
2022/09/18 12:58:18;;;;;;;1.9;3.8;;;;;;;11.8;80.5;97840;;;;
2022/09/18 13:08:18;;;;;;;1.9;3.8;;;;;;;12.1;80.8;97840;;;;
2022/09/18 13:19:18;;;;;;;1.5;4.5;;;;;;;12.4;79.8;97850;;;;
2022/09/18 13:30:20;;;;;;;1.5;4.5;;;;;;;11.5;82.1;97860;;;;
2022/09/18 13:41:18;;;;;;;1.5;4.5;;;;;;;11.8;82;97880;;;;
2022/09/18 13:52:18;;;;;;;1.5;3.4;;;;;;;11.5;81.1;97890;;;;
2022/09/18 14:03:18;;;;;;;1.5;3.4;;;;;;;11.1;81.3;97910;;;;
2022/09/18 14:13:19;;;;;;;1.5;3.4;;;;;;;10.7;83.1;97920;;;;
2022/09/18 14:23:18;;;;;;;1.5;2.8;;;;;;;10.5;84.4;97920;;;;
2022/09/18 14:34:18;;;;;;;1.5;2.8;;;;;;;10.4;85.5;97920;;;;
2022/09/18 14:44:18;;;;;;;1.5;2.8;;;;;;;10.2;85.9;97930;;;;
2022/09/18 14:55:18;;;;;;;1.9;3.8;;;;;;;10.3;86;97930;;;;
2022/09/18 15:06:19;;;;;;;1.9;3.8;;;;;;;10.2;86.8;97940;;;;
2022/09/18 15:17:18;;;;;;;3.1;6.5;;;;;;;10.5;87.2;97940;;;;
2022/09/18 15:27:18;;;;;;;3.1;6.5;;;;;;;10.8;85.9;97940;;;;
2022/09/18 15:38:18;;;;;;;3.1;6.5;;;;;;;10.9;84.5;97960;;;;
2022/09/18 15:48:18;;;;;;;4;7.1;;;;;;;10.6;84.6;97950;;;;
2022/09/18 15:59:18;;;;;;;4;7.1;;;;;;;10.6;84.7;97960;;;;
2022/09/18 16:09:18;;;;;;;4;7.1;;;;;;;10.5;84.9;97960;;;;
2022/09/18 16:20:18;;;;;;;4.5;8.4;;;;;;;10.4;84.4;97960;;;;
2022/09/18 16:25:16;;;;;;;4.5;8.4;;;;;;;10.4;84.5;97960;;;;
2022/09/18 16:35:16;;;;;;;4.5;8.4;;;;;;;10.4;84;97960;;;;
2022/09/18 16:46:16;;;;;;;3.9;6.5;;;;;;;10.1;84.3;97940;;;;
2022/09/18 16:57:17;;;;;;;3.9;6.5;;;;;;;9.9;84.8;97950;;;;
2022/09/18 17:07:16;;;;;;;3.9;6.5;;;;;;;9.9;84.9;97960;;;;
2022/09/18 17:18:16;;;;;;;3.7;7.3;;;;;;;9.9;85.2;97970;;;;
2022/09/18 17:28:17;;;;;;;3.7;7.3;;;;;;;9.8;85.6;97980;;;;
2022/09/18 17:39:16;;;;;;;3.7;7.3;;;;;;;9.8;85.5;97990;;;;
2022/09/18 17:49:16;;;;;;;3.7;7;;;;;;;9.5;85.2;97980;;;;
2022/09/18 18:00:16;;;;;;;3.7;7;;;;;;;9.2;86;97990;;;;
2022/09/18 18:11:16;;;;;;;3.7;7;;;;;;;8.9;86.7;97990;;;;
2022/09/18 18:22:16;;;;;;;4.2;9.6;;;;;;;8.7;86.5;97990;;;;
2022/09/18 18:32:17;;;;;;;4.2;9.6;;;;;;;8.6;86.6;97990;;;;
2022/09/18 18:42:16;;;;;;;4.2;9.6;;;;;;;8.5;86.7;97980;;;;
2022/09/18 18:52:16;;;;;;;3.5;8.4;;;;;;;8.4;87;97980;;;;
2022/09/18 19:03:16;;;;;;;3.5;8.4;;;;;;;8.6;86.9;98000;;;;
2022/09/18 19:13:16;;;;;;;3.5;8.4;;;;;;;8.8;86.4;97990;;;;
2022/09/18 19:24:17;;;;;;;3.5;7.6;;;;;;;8.8;86.6;97990;;;;
2022/09/18 19:34:16;;;;;;;3.5;7.6;;;;;;;8.5;87;97980;;;;
2022/09/18 19:44:16;;;;;;;3.5;7.6;;;;;;;8.3;87.1;97980;;;;
2022/09/18 19:55:16;;;;;;;3.5;7.4;;;;;;;8.2;87.8;97990;;;;
2022/09/18 20:05:16;;;;;;;3.5;7.4;;;;;;;8.2;87.9;97990;;;;
2022/09/18 20:16:16;;;;;;;3.8;7.2;;;;;;;8.3;87.6;97980;;;;
2022/09/18 20:27:16;;;;;;;3.8;7.2;;;;;;;8.2;87.2;97970;;;;
2022/09/18 20:37:16;;;;;;;3.8;7.2;;;;;;;8;87.2;97980;;;;
2022/09/18 20:48:25;;;;;;;3.5;7.6;;;;;;;7.8;87;97980;;;;
2022/09/18 20:59:17;;;;;;;3.5;7.6;;;;;;;7.7;86.9;97960;;;;
2022/09/18 21:10:16;;;;;;;3.5;7.6;;;;;;;7.6;87.3;97950;;;;
2022/09/18 21:20:16;;;;;;;2.6;4.4;;;;;;;7.5;87.1;97940;;;;
2022/09/18 21:30:16;;;;;;;2.6;4.4;;;;;;;7.5;87.5;97940;;;;
2022/09/18 21:41:16;;;;;;;2.6;4.4;;;;;;;7.6;87.4;97930;;;;
2022/09/18 21:52:16;;;;;;;1.8;4.6;;;;;;;7.8;87.3;97920;;;;
2022/09/18 22:02:19;;;;;;;1.8;4.6;;;;;;;8;86.9;97920;;;;
2022/09/18 22:12:16;;;;;;;1.8;4.6;;;;;;;8.1;86.6;97910;;;;
2022/09/18 22:23:16;;;;;;;1.7;4.2;;;;;;;8.3;86.4;97920;;;;
2022/09/18 22:34:16;;;;;;;1.7;4.2;;;;;;;8.6;86.6;97900;;;;
2022/09/18 22:44:16;;;;;;;1.7;4.2;;;;;;;8.8;86.7;97900;;;;
2022/09/18 22:54:16;;;;;;;2.1;4.3;;;;;;;9.1;86.5;97900;;;;
2022/09/18 23:05:16;;;;;;;2.1;4.3;;;;;;;9.1;86.3;97890;;;;
2022/09/18 23:16:16;;;;;;;2.8;5;;;;;;;9.2;86.4;97880;;;;
2022/09/18 23:27:16;;;;;;;2.8;5;;;;;;;9.3;86.5;97870;;;;
2022/09/18 23:38:16;;;;;;;2.8;5;;;;;;;9.4;85.8;97870;;;;
2022/09/18 23:49:22;;;;;;;2.7;5;;;;;;;9.6;85.4;97870;;;;
